Terminal Aerodrome Forecast
Issued by NWS

Home | Current Version | Previous Version | Text Only | Print | Product List | Glossary On
Versions: 1 2 3 4 5 6 7 8 9 10 11 12 13 14 15 16 17 18 19 20 21 22 23 24 25 26 27 28 29 30 31 32 33 34
000
FTUS45 KGJT 232335
TAFMTJ
TAF
KMTJ 232335Z 2400/2424 11012KT P6SM BKN110
     FM240200 11007KT P6SM VCSH OVC080
     FM240500 30006KT P6SM VCSH OVC080
     FM241100 28010G18KT P6SM BKN040
     FM241300 26006KT P6SM BKN060
     FM241800 31009KT P6SM SCT120=

USA.gov is the U.S. government's official web portal to all federal, state and local government web resources and services.